Portada
METAR-TAF:

METAR-TAF

Aeroports :

Johnston County Airport

Smithfield, Carolina del Nord, Estats Units d'Amèrica

latitud: 35-32-27N, longitud: 078-23-25W, altitud: 50 m

Observació

L'informe es va fer fa 20 minuts, a les 17:55 UTC
Vent 6 kt del Oest
Temperatura 6°C
Humitat 65%
Pressió 1004 hPa
Visibilitat: 16.1 km
Núvols disperses a una alçada de 2600 ft
Cel ennuvolat a una alçada de 4200 ft
Cel cobert a una alçada de 5000 ft

METAR: KJNX 161755Z AUTO 26006KT 10SM SCT026 BKN042 OVC050 06/00 A2964 RMK AO2

Hora: 13:15 (18:15 UTC)


TAF: manca

Observacions i pronòstics meteorològics de més de 4000 aeroports (METAR i TAF).

Les estacions disponibles són els punts grocs i vermells al mapa.

Posi el ratolí al punt desitjat per veure el nom de l'estació.

Feu clic per veure les observacions i els pronòstics meteorològics.

Per canviar el mapa: feu clic els botons verds amb una creu de color negre per apropar; al botó verd amb un guió per allunyar la imatge; o en les fletxes verdes per a mapes adjacents.


METAR-TAF: